Hanover, New Hampshire
Current Conditions -  °F | °C
As of 12:30 PM on Wednesday 26 Nov 2014 (Local Time) from KLEB Reporting Station
Light Snow Light Snow  
Wind Chill: 29°   Ceiling: 900
Heat Index: 33°   Visibility: 0.75mi
Dew Point: 29°   Wind: 5mph
Humidity: 85%   Direction: 340°NNW
Pressure: 30.15"   Gusts: NA
Location:  43.7°N, 72.29°W
Report Text: KLEB 261730Z 34004KT 3/4SM -SN BR VV009 01/M02 A3015 RMK AO2 SNB1656 P0000 T00061017
Loading
Personal Weather Stations






























Interactive Weather Map New forecast layout! Learn more

10-Day Weather Forecast

Advertisements
Track Severe Weather on mobile